createdAt,value
2018-04-15T00:00:57.193Z,85.69
2018-04-15T00:01:57.097Z,86.55
2018-04-15T00:02:57.085Z,85.25
2018-04-15T00:03:56.915Z,84.92
2018-04-15T00:04:56.821Z,85.25
2018-04-15T00:05:56.733Z,85.25
2018-04-15T00:06:56.635Z,85.06
2018-04-15T00:07:56.574Z,83.92
2018-04-15T00:08:56.455Z,83.58
2018-04-15T00:09:56.359Z,83.01
2018-04-15T00:10:56.266Z,83.48
2018-04-15T00:11:56.176Z,82.91
2018-04-15T00:12:56.115Z,82.15
2018-04-15T00:13:55.997Z,82.53
2018-04-15T00:14:55.899Z,82.63
2018-04-15T00:15:55.806Z,82.43
2018-04-15T00:16:55.717Z,81.77
2018-04-15T00:17:55.654Z,82.91
2018-04-15T00:18:55.532Z,81.86
2018-04-15T00:19:55.441Z,81.52
2018-04-15T00:20:55.347Z,83.20
2018-04-15T00:21:55.258Z,82.06
2018-04-15T00:22:55.198Z,81.77
2018-04-15T00:23:55.075Z,81.96
2018-04-15T00:24:54.985Z,80.85
2018-04-15T00:25:54.890Z,81.14
2018-04-15T00:26:54.893Z,81.52
2018-04-15T00:27:54.736Z,81.58
2018-04-15T00:28:54.614Z,81.77
2018-04-15T00:29:54.524Z,82.06
2018-04-15T00:30:54.431Z,81.38
2018-04-15T00:31:54.340Z,82.53
2018-04-15T00:32:54.283Z,82.24
2018-04-15T00:33:54.268Z,82.24
2018-04-15T00:34:54.066Z,82.72
2018-04-15T00:35:53.973Z,81.96
2018-04-15T00:36:53.883Z,82.06
2018-04-15T00:37:53.825Z,81.77
2018-04-15T00:38:53.699Z,81.14
2018-04-15T00:39:53.605Z,82.15
2018-04-15T00:40:53.611Z,82.24
2018-04-15T00:41:53.425Z,82.63
2018-04-15T00:42:53.337Z,81.86
2018-04-15T00:43:53.272Z,83.11
2018-04-15T00:44:53.152Z,82.82
2018-04-15T00:45:53.057Z,82.82
2018-04-15T00:46:52.969Z,82.53
2018-04-15T00:47:52.977Z,82.72
2018-04-15T00:48:52.817Z,83.67
2018-04-15T00:49:52.695Z,83.01
2018-04-15T00:50:52.602Z,83.16
2018-04-15T00:51:52.510Z,83.64
2018-04-15T00:52:52.420Z,83.83
2018-04-15T00:53:52.358Z,83.83
2018-04-15T00:54:52.328Z,83.06
2018-04-15T00:55:52.146Z,84.49
2018-04-15T00:56:52.053Z,84.30
2018-04-15T00:57:51.963Z,84.69
2018-04-15T00:58:51.897Z,83.64
2018-04-15T00:59:51.784Z,83.73
2018-04-15T01:00:51.688Z,83.92
2018-04-15T01:01:51.694Z,82.59
2018-04-15T01:02:51.505Z,82.87
2018-04-15T01:03:51.442Z,84.59
2018-04-15T01:04:51.323Z,84.59
2018-04-15T01:05:51.233Z,84.40
2018-04-15T01:06:51.143Z,83.92
2018-04-15T01:07:51.051Z,83.64
2018-04-15T01:08:51.086Z,83.25
2018-04-15T01:09:50.868Z,84.11
2018-04-15T01:10:50.776Z,83.06
2018-04-15T01:11:50.686Z,82.59
2018-04-15T01:12:50.594Z,82.78
2018-04-15T01:13:50.530Z,82.97
2018-04-15T01:14:50.412Z,83.64
2018-04-15T01:15:50.416Z,83.11
2018-04-15T01:16:50.227Z,83.01
2018-04-15T01:17:50.142Z,82.91
2018-04-15T01:18:50.075Z,82.24
2018-04-15T01:19:49.952Z,81.86
2018-04-15T01:20:49.859Z,81.96
2018-04-15T01:21:49.771Z,81.96
2018-04-15T01:22:49.774Z,81.20
2018-04-15T01:23:49.620Z,80.91
2018-04-15T01:24:49.500Z,81.04
2018-04-15T01:25:49.403Z,81.20
2018-04-15T01:26:49.316Z,81.48
2018-04-15T01:27:49.222Z,80.81
2018-04-15T01:28:49.158Z,81.10
2018-04-15T01:29:49.134Z,81.29
2018-04-15T01:30:48.949Z,81.20
2018-04-15T01:31:48.860Z,81.29
2018-04-15T01:32:48.766Z,81.67
2018-04-15T01:33:48.702Z,80.81
2018-04-15T01:34:48.581Z,80.72
2018-04-15T01:35:48.493Z,81.29
2018-04-15T01:36:48.400Z,80.91
2018-04-15T01:37:48.308Z,80.91
2018-04-15T01:38:48.250Z,80.91
2018-04-15T01:39:48.126Z,80.72
2018-04-15T01:40:48.037Z,81.01
2018-04-15T01:41:47.944Z,80.91
2018-04-15T01:42:47.851Z,80.91
2018-04-15T01:43:47.791Z,81.01
2018-04-15T01:44:47.670Z,81.67
2018-04-15T01:45:47.578Z,81.29
2018-04-15T01:46:47.487Z,80.81
2018-04-15T01:47:47.398Z,82.15
2018-04-15T01:48:47.335Z,81.38
2018-04-15T01:49:47.211Z,81.10
2018-04-15T01:50:47.121Z,82.06
2018-04-15T01:51:47.030Z,81.20
2018-04-15T01:52:46.944Z,81.01
2018-04-15T01:53:46.875Z,81.29
2018-04-15T01:54:46.758Z,81.77
2018-04-15T01:55:46.660Z,81.38
2018-04-15T01:56:46.573Z,81.29
2018-04-15T01:57:46.478Z,81.48
2018-04-15T01:58:46.390Z,81.48
2018-04-15T01:59:46.327Z,81.67
2018-04-15T02:00:46.206Z,81.38
2018-04-15T02:01:46.112Z,80.81
2018-04-15T02:02:46.022Z,80.62
2018-04-15T02:03:45.936Z,81.20
2018-04-15T02:04:45.869Z,81.01
2018-04-15T02:05:45.745Z,81.38
2018-04-15T02:06:45.655Z,81.58
2018-04-15T02:07:45.564Z,81.48
2018-04-15T02:08:45.474Z,82.15
2018-04-15T02:09:45.409Z,81.67
2018-04-15T02:10:45.291Z,81.96
2018-04-15T02:11:45.197Z,81.29
2018-04-15T02:12:45.105Z,81.20
2018-04-15T02:13:45.021Z,81.67
2018-04-15T02:14:44.954Z,81.86
2018-04-15T02:15:44.830Z,82.15
2018-04-15T02:16:44.764Z,81.86
2018-04-15T02:17:44.649Z,81.96
2018-04-15T02:18:44.557Z,82.06
2018-04-15T02:19:44.532Z,81.86
2018-04-15T02:20:44.376Z,81.67
2018-04-15T02:21:44.283Z,81.86
2018-04-15T02:22:44.189Z,81.67
2018-04-15T02:23:44.098Z,81.67
2018-04-15T02:24:44.035Z,81.77
2018-04-15T02:25:43.916Z,81.67
2018-04-15T02:26:43.825Z,81.67
2018-04-15T02:27:43.732Z,81.67
2018-04-15T02:28:43.640Z,82.06
2018-04-15T02:29:43.604Z,82.15
2018-04-15T02:30:43.455Z,81.63
2018-04-15T02:31:43.368Z,82.87
2018-04-15T02:32:43.557Z,82.49
2018-04-15T02:33:43.184Z,82.06
2018-04-15T02:34:43.122Z,82.24
2018-04-15T02:35:42.998Z,82.82
2018-04-15T02:36:42.907Z,82.24
2018-04-15T02:37:42.812Z,82.01
2018-04-15T02:38:42.725Z,82.59
2018-04-15T02:39:42.662Z,82.59
2018-04-15T02:40:42.540Z,82.68
2018-04-15T02:41:42.449Z,82.87
2018-04-15T02:42:42.356Z,82.78
2018-04-15T02:43:42.265Z,82.87
2018-04-15T02:44:42.204Z,82.87
2018-04-15T02:45:42.085Z,83.06
2018-04-15T02:46:41.991Z,82.68
2018-04-15T02:47:41.899Z,82.87
2018-04-15T02:48:41.806Z,82.68
2018-04-15T02:49:41.746Z,82.87
2018-04-15T02:50:41.622Z,83.06
2018-04-15T02:51:41.530Z,83.16
2018-04-15T02:52:41.441Z,82.87
2018-04-15T02:53:41.347Z,82.78
2018-04-15T02:54:41.288Z,82.78
2018-04-15T02:55:41.163Z,82.97
2018-04-15T02:56:41.090Z,82.97
2018-04-15T02:57:40.982Z,83.16
2018-04-15T02:58:40.887Z,83.73
2018-04-15T02:59:40.826Z,83.73
2018-04-15T03:00:40.706Z,83.83
2018-04-15T03:01:40.614Z,83.73
2018-04-15T03:02:40.521Z,84.40
2018-04-15T03:03:40.430Z,84.26
2018-04-15T03:04:40.368Z,84.74
2018-04-15T03:05:40.248Z,84.83
2018-04-15T03:06:40.156Z,85.21
2018-04-15T03:07:40.062Z,85.31
2018-04-15T03:08:39.972Z,84.92
2018-04-15T03:09:39.919Z,86.03
2018-04-15T03:10:39.786Z,85.93
2018-04-15T03:11:39.695Z,86.12
2018-04-15T03:12:39.613Z,87.46
2018-04-15T03:13:39.511Z,85.84
2018-04-15T03:14:39.517Z,87.13
2018-04-15T03:15:39.359Z,87.03
2018-04-15T03:16:39.234Z,87.07
2018-04-15T03:17:39.144Z,87.23
2018-04-15T03:18:39.052Z,87.46
2018-04-15T03:19:38.966Z,86.94
2018-04-15T03:20:38.897Z,86.12
2018-04-15T03:21:38.774Z,87.17
2018-04-15T03:22:38.685Z,86.41
2018-04-15T03:23:38.592Z,87.03
2018-04-15T03:24:38.499Z,86.65
2018-04-15T03:25:38.439Z,86.36
2018-04-15T03:26:38.314Z,87.03
2018-04-15T03:27:38.223Z,87.23
2018-04-15T03:28:38.242Z,87.23
2018-04-15T03:29:38.035Z,86.65
2018-04-15T03:30:37.971Z,87.98
2018-04-15T03:31:37.858Z,87.03
2018-04-15T03:32:37.763Z,87.03
2018-04-15T03:33:37.668Z,86.36
2018-04-15T03:34:37.583Z,87.03
2018-04-15T03:35:37.613Z,87.03
2018-04-15T03:36:37.395Z,87.32
2018-04-15T03:37:37.299Z,87.23
2018-04-15T03:38:37.205Z,87.23
2018-04-15T03:39:37.112Z,87.23
2018-04-15T03:40:37.053Z,87.60
2018-04-15T03:41:36.928Z,87.41
2018-04-15T03:42:36.938Z,87.70
2018-04-15T03:43:36.743Z,87.32
2018-04-15T03:44:36.652Z,87.41
2018-04-15T03:45:36.587Z,87.32
2018-04-15T03:46:36.467Z,86.84
2018-04-15T03:47:36.374Z,87.41
2018-04-15T03:48:36.282Z,87.41
2018-04-15T03:49:36.290Z,87.03
2018-04-15T03:50:36.130Z,87.03
2018-04-15T03:51:36.005Z,86.84
2018-04-15T03:52:35.906Z,87.13
2018-04-15T03:53:35.818Z,87.03
2018-04-15T03:54:35.725Z,86.98
2018-04-15T03:55:35.662Z,86.75
2018-04-15T03:56:35.638Z,86.84
2018-04-15T03:57:35.449Z,86.36
2018-04-15T03:58:35.358Z,86.84
2018-04-15T03:59:35.261Z,87.32
2018-04-15T04:00:35.199Z,87.51
2018-04-15T04:01:35.077Z,87.51
2018-04-15T04:02:34.983Z,87.70
2018-04-15T04:03:34.988Z,87.51
2018-04-15T04:04:34.798Z,87.23
2018-04-15T04:05:34.736Z,87.89
2018-04-15T04:06:34.613Z,87.13
2018-04-15T04:07:34.524Z,88.27
2018-04-15T04:08:34.429Z,87.98
2018-04-15T04:09:34.333Z,87.70
2018-04-15T04:10:34.368Z,88.18
2018-04-15T04:11:34.149Z,88.84
2018-04-15T04:12:34.056Z,88.27
2018-04-15T04:13:33.964Z,88.18
2018-04-15T04:14:33.870Z,88.93
2018-04-15T04:15:33.809Z,88.70
2018-04-15T04:16:33.688Z,88.60
2018-04-15T04:17:33.747Z,88.79
2018-04-15T04:18:33.500Z,88.75
2018-04-15T04:19:33.408Z,88.75
2018-04-15T04:20:33.347Z,89.03
2018-04-15T04:21:33.221Z,88.93
2018-04-15T04:22:33.126Z,88.75
2018-04-15T04:23:33.044Z,88.93
2018-04-15T04:24:33.045Z,88.84
2018-04-15T04:25:32.897Z,88.18
2018-04-15T04:26:32.758Z,87.98
2018-04-15T04:27:32.666Z,87.46
2018-04-15T04:28:32.571Z,87.36
2018-04-15T04:29:32.496Z,87.07
2018-04-15T04:30:32.388Z,87.07
2018-04-15T04:31:32.424Z,86.32
2018-04-15T04:32:32.200Z,86.03
2018-04-15T04:33:32.105Z,87.36
2018-04-15T04:34:32.016Z,87.27
2018-04-15T04:35:31.923Z,86.12
2018-04-15T04:36:31.864Z,86.60
2018-04-15T04:37:31.859Z,86.69
2018-04-15T04:38:31.644Z,85.88
2018-04-15T04:39:31.554Z,86.45
2018-04-15T04:40:31.458Z,86.16
2018-04-15T04:41:31.396Z,86.07
2018-04-15T04:42:31.278Z,86.55
2018-04-15T04:43:31.179Z,86.16
2018-04-15T04:44:31.092Z,86.26
2018-04-15T04:45:30.996Z,86.45
2018-04-15T04:46:30.934Z,85.88
2018-04-15T04:47:30.809Z,86.07
2018-04-15T04:48:30.718Z,85.97
2018-04-15T04:49:30.623Z,86.36
2018-04-15T04:50:30.547Z,86.36
2018-04-15T04:51:30.467Z,86.26
2018-04-15T04:52:30.348Z,85.97
2018-04-15T04:53:30.254Z,86.45
2018-04-15T04:54:30.165Z,86.65
2018-04-15T04:55:30.067Z,86.07
2018-04-15T04:56:29.978Z,86.07
2018-04-15T04:57:29.910Z,86.07
2018-04-15T04:58:29.789Z,86.16
2018-04-15T04:59:29.697Z,85.60
2018-04-15T05:00:29.604Z,86.26
2018-04-15T05:01:29.526Z,85.78
2018-04-15T05:02:29.450Z,86.26
2018-04-15T05:03:29.330Z,85.88
2018-04-15T05:04:29.236Z,86.26
2018-04-15T05:05:29.145Z,87.12
2018-04-15T05:06:29.053Z,85.78
2018-04-15T05:07:28.993Z,85.60
2018-04-15T05:08:28.866Z,86.07
2018-04-15T05:09:28.773Z,85.69
2018-04-15T05:10:28.681Z,86.16
2018-04-15T05:11:28.600Z,85.06
2018-04-15T05:12:28.529Z,85.06
2018-04-15T05:13:28.406Z,84.88
2018-04-15T05:14:28.313Z,84.97
2018-04-15T05:15:28.221Z,84.40
2018-04-15T05:16:28.128Z,84.97
2018-04-15T05:17:28.065Z,85.45
2018-04-15T05:18:27.943Z,84.59
2018-04-15T05:19:27.853Z,84.49
2018-04-15T05:20:27.764Z,84.97
2018-04-15T05:21:27.669Z,84.78
2018-04-15T05:22:27.604Z,84.01
2018-04-15T05:23:27.486Z,84.78
2018-04-15T05:24:27.447Z,84.49
2018-04-15T05:25:27.303Z,83.92
2018-04-15T05:26:27.208Z,84.30
2018-04-15T05:27:27.146Z,84.34
2018-04-15T05:28:27.025Z,83.92
2018-04-15T05:29:26.936Z,84.16
2018-04-15T05:30:26.843Z,83.77
2018-04-15T05:31:26.752Z,84.49
2018-04-15T05:32:26.687Z,83.96
2018-04-15T05:33:26.569Z,83.67
2018-04-15T05:34:26.475Z,83.29
2018-04-15T05:35:26.386Z,83.77
2018-04-15T05:36:26.296Z,83.11
2018-04-15T05:37:26.231Z,82.91
2018-04-15T05:38:26.113Z,83.01
2018-04-15T05:39:26.017Z,83.77
2018-04-15T05:40:26.023Z,83.58
2018-04-15T05:41:25.839Z,83.48
2018-04-15T05:42:25.794Z,84.34
2018-04-15T05:43:25.653Z,83.58
2018-04-15T05:44:25.561Z,83.20
2018-04-15T05:45:25.470Z,83.11
2018-04-15T05:46:25.378Z,84.06
2018-04-15T05:47:25.415Z,83.20
2018-04-15T05:48:25.196Z,83.20
2018-04-15T05:49:25.130Z,83.01
2018-04-15T05:50:25.016Z,83.11
2018-04-15T05:51:24.924Z,82.91
2018-04-15T05:52:24.862Z,82.91
2018-04-15T05:53:24.738Z,83.48
2018-04-15T05:54:24.649Z,82.91
2018-04-15T05:55:24.559Z,83.20
2018-04-15T05:56:24.470Z,82.91
2018-04-15T05:57:24.405Z,83.29
2018-04-15T05:58:24.286Z,83.11
2018-04-15T05:59:24.194Z,83.58
2018-04-15T06:00:24.109Z,82.91
2018-04-15T06:01:24.109Z,83.53
2018-04-15T06:02:23.948Z,82.95
2018-04-15T06:03:23.828Z,82.48
2018-04-15T06:04:23.739Z,83.14
2018-04-15T06:05:23.649Z,83.43
2018-04-15T06:06:23.557Z,82.67
2018-04-15T06:07:23.495Z,83.91
2018-04-15T06:08:23.472Z,83.43
2018-04-15T06:09:23.284Z,83.05
2018-04-15T06:10:23.193Z,82.38
2018-04-15T06:11:23.105Z,83.24
2018-04-15T06:12:23.043Z,83.14
2018-04-15T06:13:22.921Z,82.86
2018-04-15T06:14:22.832Z,84.10
2018-04-15T06:15:22.836Z,83.14
2018-04-15T06:16:22.652Z,83.24
2018-04-15T06:17:22.563Z,83.14
2018-04-15T06:18:22.497Z,81.81
2018-04-15T06:19:22.381Z,83.34
2018-04-15T06:20:22.332Z,82.95
2018-04-15T06:21:22.196Z,82.14
2018-04-15T06:22:22.223Z,82.71
2018-04-15T06:23:22.052Z,83.00
2018-04-15T06:24:21.929Z,82.57
2018-04-15T06:25:21.835Z,83.34
2018-04-15T06:26:21.748Z,84.48
2018-04-15T06:27:21.660Z,83.34
2018-04-15T06:28:21.599Z,82.86
2018-04-15T06:29:21.569Z,84.23
2018-04-15T06:30:21.386Z,83.09
2018-04-15T06:31:21.300Z,82.42
2018-04-15T06:32:21.209Z,83.18
2018-04-15T06:33:21.152Z,81.76
2018-04-15T06:34:21.030Z,81.95
2018-04-15T06:35:20.938Z,80.80
2018-04-15T06:36:20.947Z,81.99
2018-04-15T06:37:20.760Z,82.14
2018-04-15T06:38:20.697Z,82.52
2018-04-15T06:39:20.580Z,82.52
2018-04-15T06:40:20.491Z,82.42
2018-04-15T06:41:20.404Z,82.42
2018-04-15T06:42:20.312Z,83.00
2018-04-15T06:43:20.357Z,83.18
2018-04-15T06:44:20.135Z,83.28
2018-04-15T06:45:20.114Z,82.42
2018-04-15T06:46:19.962Z,83.18
2018-04-15T06:47:19.877Z,82.90
2018-04-15T06:48:19.814Z,82.71
2018-04-15T06:49:19.697Z,83.28
2018-04-15T06:50:19.704Z,83.09
2018-04-15T06:51:19.515Z,83.67
2018-04-15T06:52:19.432Z,82.23
2018-04-15T06:53:19.368Z,83.00
2018-04-15T06:54:19.248Z,83.86
2018-04-15T06:55:19.173Z,84.05
2018-04-15T06:56:19.072Z,84.14
2018-04-15T06:57:19.074Z,83.76
2018-04-15T06:58:18.921Z,83.47
2018-04-15T06:59:18.803Z,84.09
2018-04-15T07:00:18.720Z,84.28
2018-04-15T07:01:18.627Z,82.81
2018-04-15T07:02:18.539Z,82.94
2018-04-15T07:03:18.479Z,82.23
2018-04-15T07:04:18.455Z,82.14
2018-04-15T07:05:18.278Z,83.04
2018-04-15T07:06:18.186Z,81.79
2018-04-15T07:07:18.094Z,82.37
2018-04-15T07:08:18.039Z,81.99
2018-04-15T07:09:17.918Z,83.33
2018-04-15T07:10:17.835Z,81.51
2018-04-15T07:11:17.755Z,81.26
2018-04-15T07:12:17.664Z,81.41
2018-04-15T07:13:17.597Z,81.32
2018-04-15T07:14:17.478Z,81.41
2018-04-15T07:15:17.391Z,81.51
2018-04-15T07:16:17.303Z,82.12
2018-04-15T07:17:17.212Z,81.84
2018-04-15T07:18:17.251Z,81.16
2018-04-15T07:19:17.040Z,81.93
2018-04-15T07:20:16.948Z,81.65
2018-04-15T07:21:16.858Z,81.07
2018-04-15T07:22:16.772Z,81.36
2018-04-15T07:23:16.716Z,81.30
2018-04-15T07:24:16.693Z,80.35
2018-04-15T07:25:16.506Z,80.44
2018-04-15T07:26:16.422Z,79.68
2018-04-15T07:27:16.335Z,79.77
2018-04-15T07:28:16.277Z,79.20
2018-04-15T07:29:16.158Z,80.25
2018-04-15T07:30:16.077Z,79.87
2018-04-15T07:31:15.981Z,79.68
2018-04-15T07:32:15.897Z,79.93
2018-04-15T07:33:15.808Z,81.26
2018-04-15T07:34:15.758Z,80.88
2018-04-15T07:35:15.633Z,81.36
2018-04-15T07:36:15.545Z,81.51
2018-04-15T07:37:15.457Z,82.28
2018-04-15T07:38:15.370Z,82.46
2018-04-15T07:39:15.312Z,81.93
2018-04-15T07:40:15.197Z,82.79
2018-04-15T07:41:15.107Z,81.93
2018-04-15T07:42:15.019Z,82.22
2018-04-15T07:43:14.937Z,81.84
2018-04-15T07:44:14.877Z,81.84
2018-04-15T07:45:14.758Z,82.12
2018-04-15T07:46:14.667Z,81.84
2018-04-15T07:47:14.581Z,82.22
2018-04-15T07:48:14.493Z,82.70
2018-04-15T07:49:14.440Z,82.89
2018-04-15T07:50:14.317Z,83.04
2018-04-15T07:51:14.235Z,82.75
2018-04-15T07:52:14.146Z,82.75
2018-04-15T07:53:14.057Z,82.94
2018-04-15T07:54:13.999Z,82.28
2018-04-15T07:55:13.881Z,82.84
2018-04-15T07:56:13.801Z,82.46
2018-04-15T07:57:13.715Z,82.94
2018-04-15T07:58:13.617Z,83.23
2018-04-15T07:59:13.556Z,83.04
2018-04-15T08:00:13.444Z,84.28
2018-04-15T08:01:13.353Z,83.99
2018-04-15T08:02:13.269Z,83.51
2018-04-15T08:03:13.178Z,84.76
2018-04-15T08:04:13.119Z,83.70
2018-04-15T08:05:13.000Z,84.19
2018-04-15T08:06:12.914Z,83.04
2018-04-15T08:07:12.825Z,83.67
2018-04-15T08:08:12.742Z,83.67
2018-04-15T08:09:12.675Z,83.86
2018-04-15T08:10:12.563Z,83.86
2018-04-15T08:11:12.479Z,83.28
2018-04-15T08:12:12.383Z,83.57
2018-04-15T08:13:12.296Z,84.33
2018-04-15T08:14:12.235Z,84.33
2018-04-15T08:15:12.140Z,83.57
2018-04-15T08:16:12.028Z,84.05
2018-04-15T08:17:11.988Z,83.76
2018-04-15T08:18:11.853Z,84.23
2018-04-15T08:19:11.793Z,84.38
2018-04-15T08:20:11.698Z,82.94
2018-04-15T08:21:11.588Z,82.75
2018-04-15T08:22:11.807Z,84.09
2018-04-15T08:23:11.410Z,82.03
2018-04-15T08:24:11.351Z,82.89
2018-04-15T08:25:11.260Z,83.17
2018-04-15T08:26:11.147Z,81.88
2018-04-15T08:27:11.055Z,81.97
2018-04-15T08:28:10.967Z,81.30
2018-04-15T08:29:10.913Z,79.96
2018-04-15T08:30:10.790Z,80.35
2018-04-15T08:31:10.714Z,80.35
2018-04-15T08:32:10.612Z,80.25
2018-04-15T08:33:10.527Z,80.92
2018-04-15T08:34:10.469Z,81.15
2018-04-15T08:35:10.349Z,79.81
2018-04-15T08:36:10.265Z,80.43
2018-04-15T08:37:10.174Z,76.79
2018-04-15T08:38:10.087Z,78.03
2018-04-15T08:39:10.001Z,77.36
2018-04-15T08:40:09.944Z,77.08
2018-04-15T08:41:09.823Z,76.89
2018-04-15T08:42:09.827Z,75.83
2018-04-15T08:43:09.652Z,77.17
2018-04-15T08:44:09.595Z,78.42
2018-04-15T08:45:09.476Z,76.98
2018-04-15T08:46:09.394Z,77.17
2018-04-15T08:47:09.306Z,74.77
2018-04-15T08:48:09.218Z,76.60
2018-04-15T08:49:09.227Z,76.02
2018-04-15T08:50:09.075Z,76.79
2018-04-15T08:51:08.960Z,75.73
2018-04-15T08:52:08.876Z,78.38
2018-04-15T08:53:08.789Z,79.28
2018-04-15T08:54:08.701Z,77.08
2018-04-15T08:55:08.643Z,78.51
2018-04-15T08:56:08.625Z,76.89
2018-04-15T08:57:08.442Z,77.84
2018-04-15T08:58:08.355Z,78.55
2018-04-15T08:59:08.272Z,75.90
2018-04-15T09:00:08.214Z,76.96
2018-04-15T09:01:08.096Z,71.21
2018-04-15T09:02:08.012Z,70.25
2018-04-15T09:03:08.035Z,72.11
2018-04-15T09:04:07.839Z,70.51
2018-04-15T09:05:07.786Z,72.30
2018-04-15T09:06:07.667Z,70.00
2018-04-15T09:07:07.581Z,69.46
2018-04-15T09:08:07.502Z,68.69
2018-04-15T09:09:07.481Z,76.14
2018-04-15T09:10:07.453Z,73.32
2018-04-15T09:11:07.242Z,72.74
2018-04-15T09:12:07.155Z,75.18
2018-04-15T09:13:07.074Z,71.37
2018-04-15T09:14:06.996Z,68.79
2018-04-15T09:15:06.937Z,66.33
2018-04-15T09:16:06.820Z,68.24
2018-04-15T09:17:06.832Z,65.46
2018-04-15T09:18:06.651Z,66.33
2018-04-15T09:19:06.568Z,67.06
2018-04-15T09:20:06.510Z,73.97
2018-04-15T09:21:06.398Z,72.11
2018-04-15T09:22:06.312Z,69.90
2018-04-15T09:23:06.238Z,68.50
2018-04-15T09:24:06.243Z,69.46
2018-04-15T09:25:06.089Z,70.32
2018-04-15T09:26:05.973Z,66.16
2018-04-15T09:27:05.896Z,66.68
2018-04-15T09:28:05.808Z,63.32
2018-04-15T09:29:05.724Z,66.00
2018-04-15T09:30:05.675Z,63.86
2018-04-15T09:31:05.652Z,68.53
2018-04-15T09:32:05.480Z,65.84
2018-04-15T09:33:05.389Z,67.25
2018-04-15T09:34:05.308Z,67.63
2018-04-15T09:35:05.256Z,67.83
2018-04-15T09:36:05.144Z,66.29
2018-04-15T09:37:05.057Z,66.13
2018-04-15T09:38:05.068Z,65.08
2018-04-15T09:39:04.890Z,62.13
2018-04-15T09:40:04.841Z,63.51
2018-04-15T09:41:04.741Z,62.55
2018-04-15T09:42:04.637Z,63.22
2018-04-15T09:43:04.556Z,65.94
2018-04-15T09:44:04.473Z,63.92
2018-04-15T09:45:04.521Z,59.95
2018-04-15T09:46:04.308Z,58.89
2018-04-15T09:47:04.225Z,58.83
2018-04-15T09:48:04.141Z,57.32
2018-04-15T09:49:04.058Z,56.45
2018-04-15T09:50:04.011Z,59.72
2018-04-15T09:51:03.992Z,59.63
2018-04-15T09:52:03.813Z,59.69
2018-04-15T09:53:03.728Z,57.36
2018-04-15T09:54:03.648Z,61.14
2018-04-15T09:55:03.597Z,58.64
2018-04-15T09:56:03.486Z,57.32
2018-04-15T09:57:03.403Z,57.95
2018-04-15T09:58:03.321Z,56.92
2018-04-15T09:59:03.244Z,56.35
2018-04-15T10:00:03.161Z,57.28
2018-04-15T10:01:03.107Z,56.58
2018-04-15T10:02:02.997Z,54.82
2018-04-15T10:03:02.915Z,55.81
2018-04-15T10:04:02.833Z,57.35
2018-04-15T10:05:02.755Z,57.22
2018-04-15T10:06:02.700Z,58.48
2018-04-15T10:07:02.591Z,62.74
2018-04-15T10:08:02.508Z,62.55
2018-04-15T10:09:02.427Z,62.04
2018-04-15T10:10:02.354Z,62.81
2018-04-15T10:11:02.295Z,64.05
2018-04-15T10:12:02.180Z,62.10
2018-04-15T10:13:02.101Z,62.96
2018-04-15T10:14:02.021Z,62.74
2018-04-15T10:15:01.942Z,65.05
2018-04-15T10:16:01.884Z,64.72
2018-04-15T10:17:01.778Z,67.50
2018-04-15T10:18:01.692Z,66.61
2018-04-15T10:19:01.609Z,67.79
2018-04-15T10:20:01.530Z,68.37
2018-04-15T10:21:01.472Z,70.00
2018-04-15T10:22:01.361Z,67.44
2018-04-15T10:23:01.281Z,71.66
2018-04-15T10:24:01.273Z,67.69
2018-04-15T10:25:01.114Z,67.92
2018-04-15T10:26:01.062Z,68.69
2018-04-15T10:27:00.946Z,66.58
2018-04-15T10:28:00.862Z,64.98
2018-04-15T10:29:00.780Z,65.49
2018-04-15T10:30:00.697Z,63.09
2018-04-15T10:31:00.643Z,63.06
2018-04-15T10:32:00.530Z,64.47
2018-04-15T10:33:00.455Z,64.40
2018-04-15T10:34:00.367Z,63.89
2018-04-15T10:35:00.279Z,65.05
2018-04-15T10:36:00.227Z,67.16
2018-04-15T10:37:00.114Z,67.44
2018-04-15T10:38:00.028Z,71.45
2018-04-15T10:38:59.948Z,65.01
2018-04-15T10:39:59.879Z,63.89
2018-04-15T10:40:59.807Z,62.74
2018-04-15T10:41:59.698Z,63.86
2018-04-15T10:42:59.612Z,65.78
2018-04-15T10:43:59.530Z,68.05
2018-04-15T10:44:59.448Z,68.24
2018-04-15T10:45:59.449Z,65.91
2018-04-15T10:46:59.284Z,65.52
2018-04-15T10:47:59.197Z,75.21
2018-04-15T10:48:59.114Z,73.87
2018-04-15T10:49:59.031Z,70.13
2018-04-15T10:50:58.984Z,70.61
2018-04-15T10:51:58.870Z,68.08
2018-04-15T10:52:58.782Z,70.09
2018-04-15T10:53:58.698Z,69.13
2018-04-15T10:54:58.612Z,69.68
2018-04-15T10:55:58.556Z,70.54
2018-04-15T10:56:58.443Z,76.57
2018-04-15T10:57:58.360Z,76.52
2018-04-15T10:58:58.276Z,71.11
2018-04-15T10:59:58.192Z,71.11
2018-04-15T11:00:58.137Z,71.59
2018-04-15T11:01:58.025Z,76.57
2018-04-15T11:02:57.937Z,78.40
2018-04-15T11:03:57.853Z,74.57
2018-04-15T11:04:57.773Z,72.64
2018-04-15T11:05:57.716Z,73.41
2018-04-15T11:06:57.613Z,71.31
2018-04-15T11:07:57.517Z,71.53
2018-04-15T11:08:57.430Z,71.44
2018-04-15T11:09:57.348Z,70.03
2018-04-15T11:10:57.268Z,69.56
2018-04-15T11:11:57.210Z,74.83
2018-04-15T11:12:57.091Z,70.03
2018-04-15T11:13:57.017Z,68.30
2018-04-15T11:14:57.021Z,67.44
2018-04-15T11:15:56.839Z,68.21
2018-04-15T11:16:56.781Z,66.86
2018-04-15T11:17:56.669Z,69.36
2018-04-15T11:18:56.586Z,67.29
2018-04-15T11:19:56.504Z,65.65
2018-04-15T11:20:56.423Z,65.08
2018-04-15T11:21:56.457Z,63.25
2018-04-15T11:22:56.246Z,63.92
2018-04-15T11:23:56.161Z,62.42
2018-04-15T11:24:56.074Z,64.34
2018-04-15T11:25:55.993Z,62.90
2018-04-15T11:26:55.936Z,64.34
2018-04-15T11:27:55.825Z,65.20
2018-04-15T11:28:55.866Z,62.13
2018-04-15T11:29:55.654Z,62.77
2018-04-15T11:30:55.570Z,63.28
2018-04-15T11:31:55.518Z,65.08
2018-04-15T11:32:55.409Z,70.97
2018-04-15T11:33:55.318Z,66.46
2018-04-15T11:34:55.235Z,61.55
2018-04-15T11:35:55.244Z,59.92
2018-04-15T11:36:55.098Z,61.27
2018-04-15T11:37:54.984Z,64.34
2018-04-15T11:38:54.899Z,62.81
2018-04-15T11:39:54.816Z,60.11
2018-04-15T11:40:54.731Z,61.27
2018-04-15T11:41:54.675Z,62.99
2018-04-15T11:42:54.662Z,61.97
2018-04-15T11:43:54.477Z,61.40
2018-04-15T11:44:54.394Z,62.00
2018-04-15T11:45:54.313Z,63.92
2018-04-15T11:46:54.257Z,64.25
2018-04-15T11:47:54.147Z,60.97
2018-04-15T11:48:54.063Z,58.76
2018-04-15T11:49:54.072Z,55.33
2018-04-15T11:50:53.893Z,55.35
2018-04-15T11:51:53.845Z,53.84
2018-04-15T11:52:53.730Z,53.55
2018-04-15T11:53:53.648Z,53.00
2018-04-15T11:54:53.565Z,53.19
2018-04-15T11:55:53.482Z,53.45
2018-04-15T11:56:53.523Z,52.25
2018-04-15T11:57:53.323Z,51.26
2018-04-15T11:58:53.236Z,51.29
2018-04-15T11:59:53.154Z,52.11
2018-04-15T12:00:53.130Z,52.91
2018-04-15T12:01:53.025Z,51.92
2018-04-15T12:02:52.910Z,53.43
2018-04-15T12:03:52.936Z,52.18
2018-04-15T12:04:52.755Z,52.56
2018-04-15T12:05:52.672Z,53.43
2018-04-15T12:06:52.617Z,54.39
2018-04-15T12:07:52.505Z,53.53
2018-04-15T12:08:52.432Z,53.45
2018-04-15T12:09:52.341Z,54.58
2018-04-15T12:10:52.357Z,52.44
2018-04-15T12:11:52.212Z,52.99
2018-04-15T12:12:52.099Z,55.43
2018-04-15T12:13:52.023Z,54.58
2018-04-15T12:14:51.940Z,53.81
2018-04-15T12:15:51.856Z,58.34
2018-04-15T12:16:51.806Z,55.65
2018-04-15T12:17:51.791Z,54.49
2018-04-15T12:18:51.619Z,53.11
2018-04-15T12:19:51.533Z,53.78
2018-04-15T12:20:51.453Z,55.04
2018-04-15T12:21:51.377Z,54.17
2018-04-15T12:22:51.336Z,54.75
2018-04-15T12:23:51.210Z,54.85
2018-04-15T12:24:51.136Z,54.78
2018-04-15T12:25:51.048Z,54.68
2018-04-15T12:26:50.970Z,55.16
2018-04-15T12:27:50.916Z,54.97
2018-04-15T12:28:50.804Z,54.30
2018-04-15T12:29:50.722Z,52.75
2018-04-15T12:30:50.642Z,53.05
2018-04-15T12:31:50.568Z,53.14
2018-04-15T12:32:50.511Z,53.38
2018-04-15T12:33:50.427Z,54.24
2018-04-15T12:34:50.318Z,54.56
2018-04-15T12:35:50.295Z,58.57
2018-04-15T12:36:50.173Z,56.38
2018-04-15T12:37:50.106Z,56.48
2018-04-15T12:38:49.991Z,54.82
2018-04-15T12:39:49.913Z,55.20
2018-04-15T12:40:49.832Z,56.58
2018-04-15T12:41:49.748Z,55.52
2018-04-15T12:42:49.699Z,55.30
2018-04-15T12:43:49.587Z,60.14
2018-04-15T12:44:49.506Z,56.26
2018-04-15T12:45:49.422Z,56.33
2018-04-15T12:46:49.349Z,57.32
2018-04-15T12:47:49.291Z,58.64
2018-04-15T12:48:49.178Z,56.23
2018-04-15T12:49:49.097Z,58.54
2018-04-15T12:50:49.014Z,56.52
2018-04-15T12:51:48.934Z,56.40